Time;durP1;ratioP1;P1;durP2;ratioP2;P2;SDS_P1;SDS_P2;PMS_P1;PMS_P2;Temp;Humidity;BMP_temperature;BMP_pressure;BME280_temperature;BME280_humidity;BME280_pressure;Samples;Min_cycle;Max_cycle;Signal;HPM_P1;HPM_P2
2020/12/04 00:00:04;;;;;;;8.37;7.47;;;;;;;;;;4956081;29;20570;-74
2020/12/04 00:02:49;;;;;;;9.33;8.33;;;;;;;;;;4956197;29;20570;-74
2020/12/04 00:05:34;;;;;;;9.33;8.43;;;;;;;;;;4955813;28;20577;-74
2020/12/04 00:08:19;;;;;;;9.37;8.37;;;;;;;;;;4955474;29;20236;-73
2020/12/04 00:11:04;;;;;;;8.67;7.90;;;;;;;;;;4955962;29;20200;-74
2020/12/04 00:13:48;;;;;;;8.27;7.53;;;;;;;;;;4955632;29;20204;-74
2020/12/04 00:16:33;;;;;;;8.87;8.07;;;;;;;;;;4954843;28;20225;-73
2020/12/04 00:19:18;;;;;;;9.50;8.63;;;;;;;;;;4955454;29;20288;-74
2020/12/04 00:22:03;;;;;;;9.47;8.50;;;;;;;;;;4955531;29;20201;-74
2020/12/04 00:24:48;;;;;;;9.00;8.20;;;;;;;;;;4955495;28;20228;-74
2020/12/04 00:27:32;;;;;;;9.17;8.27;;;;;;;;;;4954623;29;20710;-73
2020/12/04 00:30:17;;;;;;;9.47;8.57;;;;;;;;;;4955359;29;20313;-74
2020/12/04 00:33:01;;;;;;;9.03;8.17;;;;;;;;;;4955559;29;20280;-74
2020/12/04 00:35:46;;;;;;;10.07;9.27;;;;;;;;;;4954146;28;20476;-73
2020/12/04 00:38:31;;;;;;;9.07;8.27;;;;;;;;;;4955298;29;20286;-74
2020/12/04 00:41:16;;;;;;;9.27;8.37;;;;;;;;;;4955172;29;20209;-74
2020/12/04 00:44:00;;;;;;;8.30;7.50;;;;;;;;;;4955010;29;20208;-73
2020/12/04 00:46:45;;;;;;;8.67;7.87;;;;;;;;;;4954642;29;20208;-74
2020/12/04 00:49:29;;;;;;;8.77;7.97;;;;;;;;;;4954805;29;20209;-73
2020/12/04 00:52:14;;;;;;;7.93;7.23;;;;;;;;;;4955076;29;20574;-73
2020/12/04 00:54:59;;;;;;;8.57;7.77;;;;;;;;;;4955017;28;20224;-73
2020/12/04 00:57:44;;;;;;;8.70;7.90;;;;;;;;;;4953916;29;20204;-72
2020/12/04 01:00:28;;;;;;;8.87;8.07;;;;;;;;;;4954709;29;20201;-72
2020/12/04 01:03:13;;;;;;;9.17;8.37;;;;;;;;;;4954870;29;20570;-72
2020/12/04 01:05:57;;;;;;;8.67;7.80;;;;;;;;;;4954087;28;20224;-72
2020/12/04 01:08:43;;;;;;;8.90;8.10;;;;;;;;;;4954507;29;20598;-73
2020/12/04 01:11:30;;;;;;;8.97;8.17;;;;;;;;;;4954715;29;20205;-73
2020/12/04 01:14:15;;;;;;;8.23;7.50;;;;;;;;;;4954523;28;20231;-75
2020/12/04 01:17:00;;;;;;;8.73;7.97;;;;;;;;;;4954071;29;20204;-74
2020/12/04 01:19:45;;;;;;;8.80;8.07;;;;;;;;;;4954513;29;20201;-74
2020/12/04 01:22:31;;;;;;;9.63;8.70;;;;;;;;;;4954420;29;20196;-74
2020/12/04 01:25:15;;;;;;;8.97;8.13;;;;;;;;;;4954328;28;20225;-73
2020/12/04 01:28:01;;;;;;;9.30;8.40;;;;;;;;;;4953550;29;20232;-74
2020/12/04 01:30:45;;;;;;;8.90;8.10;;;;;;;;;;4954209;29;20200;-73
2020/12/04 01:33:32;;;;;;;9.63;8.73;;;;;;;;;;4954273;29;20215;-74
2020/12/04 01:36:16;;;;;;;8.73;7.93;;;;;;;;;;4953534;28;20224;-73
2020/12/04 01:39:01;;;;;;;9.40;8.50;;;;;;;;;;4953617;29;20540;-73
2020/12/04 01:41:46;;;;;;;9.93;8.93;;;;;;;;;;4954117;29;20204;-74
2020/12/04 01:44:31;;;;;;;9.43;8.63;;;;;;;;;;4953840;28;20200;-73
2020/12/04 01:47:17;;;;;;;9.30;8.50;;;;;;;;;;4953457;29;20695;-73
2020/12/04 01:50:01;;;;;;;8.57;7.87;;;;;;;;;;4952219;29;20272;-74
2020/12/04 01:52:46;;;;;;;9.47;8.60;;;;;;;;;;4934893;29;20205;-73
2020/12/04 01:55:31;;;;;;;9.47;8.67;;;;;;;;;;4937437;29;20943;-73
2020/12/04 01:58:17;;;;;;;9.10;8.27;;;;;;;;;;4952898;29;20601;-74
2020/12/04 02:01:02;;;;;;;9.00;8.20;;;;;;;;;;4950475;29;20208;-74
2020/12/04 02:03:46;;;;;;;9.40;8.50;;;;;;;;;;4953057;29;20212;-74
2020/12/04 02:06:35;;;;;;;9.60;8.73;;;;;;;;;;4951967;28;20251;-73
2020/12/04 02:09:21;;;;;;;9.30;8.40;;;;;;;;;;4952807;29;20635;-74
2020/12/04 02:12:06;;;;;;;10.57;9.77;;;;;;;;;;4950321;29;20880;-74
2020/12/04 02:14:51;;;;;;;9.27;8.47;;;;;;;;;;4952556;28;20252;-74
2020/12/04 02:17:37;;;;;;;8.90;8.10;;;;;;;;;;4950465;29;20706;-74
2020/12/04 02:20:21;;;;;;;8.83;8.03;;;;;;;;;;4951486;29;20261;-73
2020/12/04 02:23:09;;;;;;;8.60;7.90;;;;;;;;;;4953465;29;20333;-72
2020/12/04 02:25:56;;;;;;;8.33;7.63;;;;;;;;;;4951867;28;20244;-73
2020/12/04 02:28:41;;;;;;;7.90;7.20;;;;;;;;;;4952337;29;20240;-73
2020/12/04 02:31:25;;;;;;;8.40;7.63;;;;;;;;;;4943034;29;20771;-73
2020/12/04 02:34:10;;;;;;;8.10;7.33;;;;;;;;;;4953234;28;20683;-73
2020/12/04 02:36:55;;;;;;;8.80;7.87;;;;;;;;;;4951792;29;20244;-73
2020/12/04 02:39:40;;;;;;;8.07;7.37;;;;;;;;;;4952222;29;20217;-74
2020/12/04 02:42:24;;;;;;;9.07;8.17;;;;;;;;;;4952437;29;20244;-73
2020/12/04 02:45:09;;;;;;;8.50;7.70;;;;;;;;;;4935442;29;20330;-73
2020/12/04 02:47:54;;;;;;;8.10;7.40;;;;;;;;;;4952553;29;20224;-73
2020/12/04 02:50:39;;;;;;;8.20;7.50;;;;;;;;;;4950576;29;20579;-73
2020/12/04 02:53:24;;;;;;;7.80;7.00;;;;;;;;;;4952347;29;20735;-74
2020/12/04 02:56:09;;;;;;;7.70;6.90;;;;;;;;;;4949828;28;20755;-73
2020/12/04 02:58:53;;;;;;;7.60;6.90;;;;;;;;;;4951960;29;20344;-72
2020/12/04 03:01:38;;;;;;;8.03;7.27;;;;;;;;;;4952151;29;20577;-73
2020/12/04 03:04:23;;;;;;;7.70;7.07;;;;;;;;;;4952788;28;20227;-73
2020/12/04 03:07:07;;;;;;;6.70;6.10;;;;;;;;;;4951263;29;20221;-73
2020/12/04 03:09:52;;;;;;;7.10;6.50;;;;;;;;;;4951062;29;20208;-73
2020/12/04 03:12:37;;;;;;;6.90;6.30;;;;;;;;;;4951206;29;20291;-72
2020/12/04 03:15:22;;;;;;;6.33;5.83;;;;;;;;;;4951935;28;20356;-73
2020/12/04 03:18:07;;;;;;;6.77;6.17;;;;;;;;;;4950506;29;20268;-74
2020/12/04 03:20:51;;;;;;;6.90;6.30;;;;;;;;;;4954038;29;20256;-73
2020/12/04 03:23:36;;;;;;;7.20;6.60;;;;;;;;;;4956726;29;20220;-73
2020/12/04 03:26:20;;;;;;;7.10;6.50;;;;;;;;;;4954719;28;20240;-74
2020/12/04 03:29:06;;;;;;;7.70;6.27;;;;;;;;;;4956248;29;20236;-71
2020/12/04 03:31:50;;;;;;;7.20;6.60;;;;;;;;;;4956610;29;20268;-74
2020/12/04 03:34:35;;;;;;;6.17;5.67;;;;;;;;;;4956635;28;20332;-74
2020/12/04 03:37:21;;;;;;;6.87;6.27;;;;;;;;;;4956064;29;20221;-73
2020/12/04 03:40:05;;;;;;;6.73;6.13;;;;;;;;;;4956273;29;20204;-73
2020/12/04 03:42:50;;;;;;;6.43;5.90;;;;;;;;;;4955908;29;20711;-73
2020/12/04 03:45:35;;;;;;;5.83;5.33;;;;;;;;;;4936751;29;20233;-73
2020/12/04 03:48:20;;;;;;;7.55;6.95;;;;;;;;;;4936083;29;20539;-73
2020/12/04 03:51:04;;;;;;;5.50;5.10;;;;;;;;;;4936639;29;20325;-74
2020/12/04 03:53:49;;;;;;;6.60;6.00;;;;;;;;;;4937151;29;20213;-72
2020/12/04 03:56:33;;;;;;;5.47;5.07;;;;;;;;;;4936063;29;20221;-73
2020/12/04 03:59:18;;;;;;;6.33;5.73;;;;;;;;;;4936502;29;20276;-75
2020/12/04 04:02:03;;;;;;;6.60;6.00;;;;;;;;;;4936801;29;20261;-73
2020/12/04 04:04:47;;;;;;;6.50;5.90;;;;;;;;;;4944956;28;20582;-74
2020/12/04 04:07:32;;;;;;;6.30;5.73;;;;;;;;;;4953286;29;20268;-73
2020/12/04 04:10:16;;;;;;;6.17;5.57;;;;;;;;;;4947158;29;20209;-74
2020/12/04 04:13:01;;;;;;;5.77;5.27;;;;;;;;;;4955664;29;20209;-74
2020/12/04 04:15:46;;;;;;;5.73;5.30;;;;;;;;;;4955686;28;20418;-76
2020/12/04 04:18:31;;;;;;;5.57;5.17;;;;;;;;;;4955036;29;20257;-73
2020/12/04 04:21:15;;;;;;;5.30;4.90;;;;;;;;;;4955645;29;20201;-73
2020/12/04 04:24:00;;;;;;;5.00;4.60;;;;;;;;;;4955522;28;20209;-74
2020/12/04 04:26:45;;;;;;;5.50;5.00;;;;;;;;;;4955022;29;20240;-74
2020/12/04 04:29:29;;;;;;;5.93;5.33;;;;;;;;;;4955561;29;20216;-73
2020/12/04 04:32:14;;;;;;;4.97;4.60;;;;;;;;;;4955642;29;20221;-73
2020/12/04 04:34:59;;;;;;;4.90;4.50;;;;;;;;;;4955371;28;20265;-73
2020/12/04 04:37:44;;;;;;;5.10;4.70;;;;;;;;;;4947010;29;20304;-74
2020/12/04 04:40:29;;;;;;;5.13;4.73;;;;;;;;;;4955033;29;20241;-75
2020/12/04 04:43:14;;;;;;;5.40;4.90;;;;;;;;;;4953068;29;20600;-75
2020/12/04 04:46:04;;;;;;;4.90;4.50;;;;;;;;;;4954599;28;20223;-73
2020/12/04 04:48:54;;;;;;;5.03;4.63;;;;;;;;;;4935697;29;20228;-75
2020/12/04 04:51:40;;;;;;;4.10;3.80;;;;;;;;;;4938683;29;20724;-75
2020/12/04 04:54:24;;;;;;;5.00;4.50;;;;;;;;;;4954957;28;20260;-74
2020/12/04 04:57:09;;;;;;;4.63;4.33;;;;;;;;;;4951986;29;20280;-75
2020/12/04 04:59:54;;;;;;;4.90;4.50;;;;;;;;;;4954914;29;20282;-74
2020/12/04 05:02:38;;;;;;;4.90;4.50;;;;;;;;;;4953834;29;20792;-74
2020/12/04 05:05:38;;;;;;;5.07;4.67;;;;;;;;;;4953790;28;20272;-74
2020/12/04 05:08:24;;;;;;;4.90;4.57;;;;;;;;;;4953717;29;20959;-75
2020/12/04 05:11:09;;;;;;;5.17;4.77;;;;;;;;;;4953806;29;20671;-73
2020/12/04 05:14:08;;;;;;;4.67;4.27;;;;;;;;;;4935219;29;20208;-75
2020/12/04 05:16:53;;;;;;;4.70;4.27;;;;;;;;;;4941615;29;20285;-75
2020/12/04 05:19:41;;;;;;;4.53;4.20;;;;;;;;;;4954283;29;20204;-75
2020/12/04 05:22:26;;;;;;;4.27;3.97;;;;;;;;;;4952898;29;20207;-75
2020/12/04 05:25:14;;;;;;;5.50;5.10;;;;;;;;;;4953777;28;20569;-74
2020/12/04 05:28:07;;;;;;;4.23;3.93;;;;;;;;;;4952905;29;20249;-74
2020/12/04 05:31:04;;;;;;;4.43;4.13;;;;;;;;;;4954175;29;20268;-73
2020/12/04 05:33:48;;;;;;;3.97;3.63;;;;;;;;;;4954197;28;20220;-74
2020/12/04 05:36:32;;;;;;;4.10;3.80;;;;;;;;;;4952001;29;20252;-75
2020/12/04 05:39:17;;;;;;;3.70;3.40;;;;;;;;;;4954241;29;20595;-75
2020/12/04 05:42:02;;;;;;;4.07;3.77;;;;;;;;;;4952642;28;20600;-75
2020/12/04 05:44:54;;;;;;;3.80;3.50;;;;;;;;;;4953971;28;20240;-72
2020/12/04 05:47:39;;;;;;;4.50;4.10;;;;;;;;;;4952160;29;20360;-75
2020/12/04 05:50:23;;;;;;;4.13;3.83;;;;;;;;;;4953906;29;20264;-74
2020/12/04 05:53:08;;;;;;;4.30;3.53;;;;;;;;;;4950623;29;20212;-74
2020/12/04 05:55:54;;;;;;;3.50;3.30;;;;;;;;;;4953415;28;20316;-75
2020/12/04 05:58:39;;;;;;;4.07;3.57;;;;;;;;;;4934460;29;20201;-74
2020/12/04 06:01:24;;;;;;;3.67;3.47;;;;;;;;;;4944988;29;20228;-74
2020/12/04 06:04:09;;;;;;;3.63;3.43;;;;;;;;;;4934463;29;20233;-74
2020/12/04 06:06:54;;;;;;;4.10;3.70;;;;;;;;;;4939529;29;20357;-74
2020/12/04 06:09:40;;;;;;;4.40;4.00;;;;;;;;;;4953607;29;20224;-74
2020/12/04 06:12:24;;;;;;;3.87;3.57;;;;;;;;;;4952505;29;20213;-74
2020/12/04 06:15:23;;;;;;;4.27;3.97;;;;;;;;;;4953485;28;20224;-74
2020/12/04 06:18:08;;;;;;;4.13;3.83;;;;;;;;;;4952179;29;20570;-74
2020/12/04 06:20:53;;;;;;;4.07;3.77;;;;;;;;;;4952791;29;20208;-73
2020/12/04 06:23:58;;;;;;;3.70;3.30;;;;;;;;;;4953210;28;20237;-74
2020/12/04 06:26:47;;;;;;;4.10;3.67;;;;;;;;;;4950861;29;20204;-73
2020/12/04 06:29:53;;;;;;;4.40;4.10;;;;;;;;;;4952006;29;20447;-73
2020/12/04 06:32:41;;;;;;;4.10;3.80;;;;;;;;;;4952115;29;20220;-73
2020/12/04 06:35:39;;;;;;;3.83;3.53;;;;;;;;;;4951474;28;20622;-73
2020/12/04 06:38:38;;;;;;;3.80;3.50;;;;;;;;;;4953260;29;20284;-73
2020/12/04 06:41:30;;;;;;;4.27;3.87;;;;;;;;;;4953078;29;20284;-74
2020/12/04 06:44:16;;;;;;;3.80;3.50;;;;;;;;;;4952773;28;20221;-79
2020/12/04 06:47:12;;;;;;;4.00;3.70;;;;;;;;;;4952687;29;20567;-77
2020/12/04 06:49:57;;;;;;;4.70;4.30;;;;;;;;;;4951899;29;20291;-77
2020/12/04 06:52:42;;;;;;;3.87;3.47;;;;;;;;;;4952933;29;20204;-73
2020/12/04 06:55:26;;;;;;;3.53;3.30;;;;;;;;;;4951871;28;20224;-73
2020/12/04 06:58:11;;;;;;;3.23;2.90;;;;;;;;;;4952562;29;20303;-73
2020/12/04 07:00:56;;;;;;;3.27;3.03;;;;;;;;;;4952711;29;20710;-73
2020/12/04 07:03:41;;;;;;;3.43;3.00;;;;;;;;;;4952866;28;20196;-73
2020/12/04 07:06:26;;;;;;;3.17;2.97;;;;;;;;;;4951988;29;20251;-73
2020/12/04 07:09:11;;;;;;;3.13;2.93;;;;;;;;;;4936915;29;20232;-72
2020/12/04 07:11:56;;;;;;;3.23;2.97;;;;;;;;;;4952840;29;20200;-73
2020/12/04 07:14:41;;;;;;;2.93;2.73;;;;;;;;;;4952461;28;20228;-73
2020/12/04 07:17:26;;;;;;;3.27;3.07;;;;;;;;;;4952503;29;20253;-73
2020/12/04 07:20:11;;;;;;;3.30;3.07;;;;;;;;;;4952848;29;20212;-73
2020/12/04 07:22:57;;;;;;;3.53;3.23;;;;;;;;;;4952832;29;20283;-73
2020/12/04 07:25:42;;;;;;;3.03;2.83;;;;;;;;;;4952850;28;20688;-73
2020/12/04 07:28:27;;;;;;;3.20;3.00;;;;;;;;;;4952549;29;20296;-72
2020/12/04 07:31:16;;;;;;;3.00;2.80;;;;;;;;;;4952391;29;20275;-73
2020/12/04 07:34:01;;;;;;;3.10;2.90;;;;;;;;;;4952871;28;20237;-72
2020/12/04 07:36:49;;;;;;;2.97;2.77;;;;;;;;;;4952132;29;20317;-73
2020/12/04 07:39:35;;;;;;;3.40;3.10;;;;;;;;;;4952617;29;20216;-73
2020/12/04 07:42:20;;;;;;;3.27;3.07;;;;;;;;;;4952662;29;20205;-73
2020/12/04 07:45:05;;;;;;;3.23;3.03;;;;;;;;;;4952410;28;20280;-73
2020/12/04 07:47:49;;;;;;;3.20;3.00;;;;;;;;;;4951980;29;20475;-73
2020/12/04 07:50:34;;;;;;;2.83;2.63;;;;;;;;;;4952549;29;20213;-73
2020/12/04 07:53:18;;;;;;;3.20;2.90;;;;;;;;;;4952544;29;20275;-73
2020/12/04 07:56:04;;;;;;;3.63;3.30;;;;;;;;;;4951570;29;20260;-72
2020/12/04 07:58:49;;;;;;;3.67;3.37;;;;;;;;;;4951001;29;20217;-74
2020/12/04 08:01:40;;;;;;;3.50;3.20;;;;;;;;;;4952598;29;20204;-72
2020/12/04 08:04:24;;;;;;;2.90;2.70;;;;;;;;;;4949604;28;20240;-78
2020/12/04 08:07:09;;;;;;;3.10;2.90;;;;;;;;;;4954049;29;20564;-77
2020/12/04 08:09:54;;;;;;;2.80;2.60;;;;;;;;;;4954489;29;20216;-78
2020/12/04 08:12:40;;;;;;;3.17;2.97;;;;;;;;;;4955474;29;20567;-79
2020/12/04 08:15:25;;;;;;;2.37;2.13;;;;;;;;;;4953346;28;20232;-77
2020/12/04 08:18:10;;;;;;;2.23;2.07;;;;;;;;;;4954998;29;20311;-77
2020/12/04 08:21:03;;;;;;;2.03;1.90;;;;;;;;;;4955396;29;20329;-77
2020/12/04 08:23:53;;;;;;;2.33;1.80;;;;;;;;;;4939013;29;20225;-78
2020/12/04 08:26:38;;;;;;;1.80;1.63;;;;;;;;;;4954939;29;20209;-77
2020/12/04 08:29:23;;;;;;;1.53;1.40;;;;;;;;;;4953920;29;20228;-74
2020/12/04 08:32:18;;;;;;;3.17;1.50;;;;;;;;;;4954914;29;20284;-77
2020/12/04 08:35:08;;;;;;;1.47;1.37;;;;;;;;;;4953423;28;20621;-76
2020/12/04 08:37:52;;;;;;;1.40;1.30;;;;;;;;;;4954584;29;20214;-76
2020/12/04 08:40:38;;;;;;;1.53;1.43;;;;;;;;;;4953186;29;20679;-76
2020/12/04 08:43:23;;;;;;;1.73;1.63;;;;;;;;;;4952642;28;20421;-76
2020/12/04 08:46:10;;;;;;;1.87;1.77;;;;;;;;;;4954238;29;20429;-77
2020/12/04 08:48:54;;;;;;;1.80;1.63;;;;;;;;;;4953374;29;20229;-76
2020/12/04 08:51:45;;;;;;;2.93;1.90;;;;;;;;;;4954964;29;20257;-71
2020/12/04 08:54:30;;;;;;;3.13;1.73;;;;;;;;;;4952529;28;20746;-72
2020/12/04 08:57:15;;;;;;;2.10;1.53;;;;;;;;;;4953994;29;20213;-71
2020/12/04 08:59:59;;;;;;;1.67;1.57;;;;;;;;;;4949141;29;20640;-72
2020/12/04 09:02:45;;;;;;;1.60;1.47;;;;;;;;;;4954820;29;20205;-75
2020/12/04 09:05:29;;;;;;;2.07;1.60;;;;;;;;;;4952605;28;20693;-72
2020/12/04 09:08:14;;;;;;;1.23;1.13;;;;;;;;;;4953820;29;20233;-73
2020/12/04 09:10:59;;;;;;;1.33;0.83;;;;;;;;;;4935671;29;20883;-74
2020/12/04 09:13:43;;;;;;;0.50;0.50;;;;;;;;;;4944201;28;20346;-73
2020/12/04 09:16:28;;;;;;;1.47;0.70;;;;;;;;;;4952239;28;20218;-73
2020/12/04 09:19:14;;;;;;;0.60;0.60;;;;;;;;;;4952674;29;20577;-73
2020/12/04 09:21:58;;;;;;;1.77;0.70;;;;;;;;;;4954484;29;20299;-74
2020/12/04 09:24:43;;;;;;;1.17;0.57;;;;;;;;;;4953256;28;20307;-74
2020/12/04 09:27:28;;;;;;;2.33;0.50;;;;;;;;;;4953718;29;20202;-72
2020/12/04 09:30:13;;;;;;;0.73;0.47;;;;;;;;;;4951871;29;20574;-75
2020/12/04 09:32:58;;;;;;;0.67;0.67;;;;;;;;;;4953590;29;20202;-75
2020/12/04 09:35:43;;;;;;;1.07;1.00;;;;;;;;;;4954015;29;20213;-73
2020/12/04 09:38:28;;;;;;;1.90;1.10;;;;;;;;;;4952614;29;20229;-74
2020/12/04 09:41:12;;;;;;;1.40;1.20;;;;;;;;;;4954007;29;20296;-74
2020/12/04 09:43:57;;;;;;;0.70;0.70;;;;;;;;;;4952957;28;20312;-74
2020/12/04 09:46:41;;;;;;;0.83;0.70;;;;;;;;;;4952567;29;20249;-73
2020/12/04 09:49:26;;;;;;;0.33;0.33;;;;;;;;;;4951254;29;20241;-75
2020/12/04 09:52:12;;;;;;;0.80;0.80;;;;;;;;;;4953339;29;20201;-74
2020/12/04 09:54:57;;;;;;;1.07;1.00;;;;;;;;;;4952281;28;20366;-74
2020/12/04 09:57:41;;;;;;;1.80;0.70;;;;;;;;;;4952912;29;20590;-74
2020/12/04 10:00:25;;;;;;;0.87;0.80;;;;;;;;;;4950366;29;20351;-75
2020/12/04 10:03:10;;;;;;;1.50;0.70;;;;;;;;;;4953218;28;20593;-73
2020/12/04 10:05:55;;;;;;;1.40;0.70;;;;;;;;;;4953409;29;20689;-72
2020/12/04 10:08:40;;;;;;;1.03;0.70;;;;;;;;;;4952448;29;20744;-73
2020/12/04 10:11:24;;;;;;;1.33;0.90;;;;;;;;;;4953566;29;20226;-73
2020/12/04 10:14:09;;;;;;;2.00;0.73;;;;;;;;;;4950376;28;20607;-71
2020/12/04 10:16:53;;;;;;;0.77;0.77;;;;;;;;;;4952992;29;20201;-71
2020/12/04 10:19:38;;;;;;;0.75;0.75;;;;;;;;;;4952062;29;20647;-72
2020/12/04 10:22:22;;;;;;;0.80;0.80;;;;;;;;;;4953282;29;20342;-71
2020/12/04 10:25:08;;;;;;;1.30;0.93;;;;;;;;;;4952137;28;20238;-71
2020/12/04 10:27:53;;;;;;;1.70;1.60;;;;;;;;;;4951219;28;20586;-73
2020/12/04 10:30:37;;;;;;;0.73;0.73;;;;;;;;;;4934108;29;20347;-70
2020/12/04 10:33:22;;;;;;;0.80;0.80;;;;;;;;;;4944246;28;20233;-70
2020/12/04 10:36:07;;;;;;;0.73;0.60;;;;;;;;;;4952348;29;20214;-70
2020/12/04 10:38:52;;;;;;;1.73;0.90;;;;;;;;;;4952940;29;20207;-70
2020/12/04 10:41:44;;;;;;;0.70;0.67;;;;;;;;;;4953160;29;20635;-70
2020/12/04 10:44:28;;;;;;;1.03;0.80;;;;;;;;;;4952707;28;20319;-69
2020/12/04 10:47:13;;;;;;;0.93;0.80;;;;;;;;;;4952504;29;20213;-69
2020/12/04 10:49:57;;;;;;;1.10;0.77;;;;;;;;;;4952576;29;20616;-69
2020/12/04 10:52:42;;;;;;;1.33;0.70;;;;;;;;;;4952902;29;20215;-69
2020/12/04 10:55:27;;;;;;;2.10;1.07;;;;;;;;;;4952818;29;20207;-69
2020/12/04 10:58:12;;;;;;;1.00;1.00;;;;;;;;;;4952076;29;20571;-70
2020/12/04 11:00:56;;;;;;;0.83;0.83;;;;;;;;;;4952907;29;20741;-70
2020/12/04 11:05:28;;;;;;;0.70;0.67;;;;;;;;;;4952621;28;20242;-71
2020/12/04 11:06:54;;;;;;;0.60;0.60;;;;;;;;;;4952322;29;20326;-71
2020/12/04 11:09:39;;;;;;;0.60;0.60;;;;;;;;;;4952770;29;20285;-71
2020/12/04 11:12:24;;;;;;;1.10;0.80;;;;;;;;;;4952606;29;20211;-69
2020/12/04 11:15:09;;;;;;;1.70;0.70;;;;;;;;;;4952389;28;20263;-69
2020/12/04 11:17:54;;;;;;;0.77;0.77;;;;;;;;;;4950751;28;20263;-72
2020/12/04 11:20:38;;;;;;;2.78;0.70;;;;;;;;;;4952966;28;20585;-71
2020/12/04 11:23:23;;;;;;;0.47;0.47;;;;;;;;;;4942510;28;20241;-71
2020/12/04 11:26:07;;;;;;;1.13;0.57;;;;;;;;;;4952173;29;20574;-71
2020/12/04 11:28:52;;;;;;;1.13;0.60;;;;;;;;;;4933276;28;20227;-71
2020/12/04 11:31:37;;;;;;;1.07;0.67;;;;;;;;;;4933261;29;20213;-73
2020/12/04 11:34:22;;;;;;;2.57;0.73;;;;;;;;;;4933105;29;20230;-73
2020/12/04 11:37:09;;;;;;;0.90;0.90;;;;;;;;;;4948159;28;20223;-74
2020/12/04 11:39:53;;;;;;;1.37;0.80;;;;;;;;;;4933389;29;20251;-75
2020/12/04 11:42:38;;;;;;;1.00;1.00;;;;;;;;;;4942887;28;20334;-75
2020/12/04 11:45:23;;;;;;;0.67;0.67;;;;;;;;;;4956049;29;20198;-73
2020/12/04 11:48:09;;;;;;;1.57;0.73;;;;;;;;;;4953926;28;20223;-75
2020/12/04 11:50:53;;;;;;;0.70;0.70;;;;;;;;;;4955968;29;20790;-75
2020/12/04 11:53:37;;;;;;;0.50;0.50;;;;;;;;;;4954429;28;20736;-75
2020/12/04 11:56:22;;;;;;;1.37;1.20;;;;;;;;;;4954365;29;20492;-75
2020/12/04 11:59:06;;;;;;;2.33;0.87;;;;;;;;;;4954791;28;20458;-73
2020/12/04 12:01:51;;;;;;;1.17;1.00;;;;;;;;;;4954623;28;20203;-74
2020/12/04 12:04:36;;;;;;;0.57;0.57;;;;;;;;;;4955575;28;20228;-75
2020/12/04 12:07:21;;;;;;;1.00;0.70;;;;;;;;;;4954750;28;20227;-74
2020/12/04 12:10:06;;;;;;;0.93;0.73;;;;;;;;;;4955449;29;20233;-73
2020/12/04 12:12:51;;;;;;;0.63;0.63;;;;;;;;;;4954111;28;20212;-72
2020/12/04 12:15:35;;;;;;;0.60;0.60;;;;;;;;;;4958703;28;20216;-77
2020/12/04 12:18:20;;;;;;;0.60;0.60;;;;;;;;;;4954378;28;20231;-76
2020/12/04 12:21:05;;;;;;;1.03;0.90;;;;;;;;;;4954263;28;20283;-77
2020/12/04 12:23:50;;;;;;;1.20;1.10;;;;;;;;;;4935560;28;20729;-75
2020/12/04 12:26:34;;;;;;;1.87;1.07;;;;;;;;;;4954242;28;20206;-76
2020/12/04 12:29:19;;;;;;;1.67;0.97;;;;;;;;;;4955384;29;20374;-76
2020/12/04 12:32:04;;;;;;;1.00;0.87;;;;;;;;;;4957868;28;20203;-76
2020/12/04 12:35:02;;;;;;;2.17;1.40;;;;;;;;;;4957254;28;20255;-76
2020/12/04 12:37:47;;;;;;;1.37;1.10;;;;;;;;;;4953484;28;20214;-76
2020/12/04 12:40:32;;;;;;;2.93;1.13;;;;;;;;;;4950391;29;20263;-75
2020/12/04 12:43:17;;;;;;;1.43;1.00;;;;;;;;;;4952710;28;20602;-77
2020/12/04 12:46:01;;;;;;;0.90;0.90;;;;;;;;;;4957929;28;20206;-80
2020/12/04 12:48:46;;;;;;;1.27;1.17;;;;;;;;;;4955126;29;20223;-77
2020/12/04 12:51:30;;;;;;;1.03;0.93;;;;;;;;;;4953652;28;20246;-77
2020/12/04 12:54:16;;;;;;;1.60;1.17;;;;;;;;;;4967860;28;20761;-77
2020/12/04 12:57:01;;;;;;;1.13;1.00;;;;;;;;;;4957255;28;20233;-69
2020/12/04 12:59:45;;;;;;;0.70;0.70;;;;;;;;;;4956730;28;20255;-70
2020/12/04 13:02:30;;;;;;;1.23;0.90;;;;;;;;;;4953724;28;20216;-74
2020/12/04 13:08:13;;;;;;;2.23;1.30;;;;;;;;;;4946377;28;20215;-74
2020/12/04 13:10:58;;;;;;;1.07;1.00;;;;;;;;;;4958506;28;20214;-75
2020/12/04 13:13:43;;;;;;;1.93;1.60;;;;;;;;;;4946446;28;20225;-79
2020/12/04 13:16:27;;;;;;;1.70;1.60;;;;;;;;;;4950888;28;20779;-78
2020/12/04 13:19:14;;;;;;;1.20;1.10;;;;;;;;;;4952943;28;20339;-77
2020/12/04 13:22:00;;;;;;;0.90;0.90;;;;;;;;;;4955621;28;20214;-80
2020/12/04 13:24:44;;;;;;;0.73;0.73;;;;;;;;;;4951261;28;20224;-85
2020/12/04 13:27:29;;;;;;;0.87;0.83;;;;;;;;;;4954652;28;20680;-71
2020/12/04 13:30:13;;;;;;;0.95;0.80;;;;;;;;;;4953507;28;20473;-73
2020/12/04 13:33:00;;;;;;;0.73;0.60;;;;;;;;;;4954231;28;20234;-70
2020/12/04 13:35:44;;;;;;;0.80;0.80;;;;;;;;;;4951839;28;20416;-79
2020/12/04 13:38:29;;;;;;;2.00;0.70;;;;;;;;;;4954242;29;20335;-80
2020/12/04 13:41:13;;;;;;;2.33;0.70;;;;;;;;;;4953486;28;20210;-80
2020/12/04 13:43:59;;;;;;;0.60;0.60;;;;;;;;;;4951652;28;20227;-76
2020/12/04 13:46:44;;;;;;;2.93;0.87;;;;;;;;;;4947468;28;20207;-73
2020/12/04 13:49:28;;;;;;;1.30;0.67;;;;;;;;;;4964695;28;20715;-70
2020/12/04 13:52:13;;;;;;;0.70;0.70;;;;;;;;;;4972948;28;20211;-69
2020/12/04 13:54:58;;;;;;;1.03;1.03;;;;;;;;;;4956153;28;20207;-72
2020/12/04 13:57:42;;;;;;;2.60;0.83;;;;;;;;;;4952592;29;20277;-72
2020/12/04 14:00:28;;;;;;;1.63;1.20;;;;;;;;;;4953717;29;20210;-72
2020/12/04 14:03:12;;;;;;;0.73;0.73;;;;;;;;;;4953285;28;20226;-71
2020/12/04 14:05:57;;;;;;;1.10;0.80;;;;;;;;;;4953128;28;20212;-72
2020/12/04 14:08:41;;;;;;;2.10;1.00;;;;;;;;;;4953669;29;20227;-72
2020/12/04 14:11:25;;;;;;;0.70;0.60;;;;;;;;;;4953584;29;20816;-73
2020/12/04 14:14:10;;;;;;;0.77;0.77;;;;;;;;;;4953483;28;20284;-72
2020/12/04 14:16:55;;;;;;;1.57;0.80;;;;;;;;;;4953014;29;20213;-72
2020/12/04 14:19:40;;;;;;;1.53;1.00;;;;;;;;;;4953006;29;20222;-72
2020/12/04 14:22:24;;;;;;;1.23;0.83;;;;;;;;;;4953495;28;20214;-72
2020/12/04 14:25:09;;;;;;;0.87;0.87;;;;;;;;;;4953456;29;20211;-72
2020/12/04 14:27:53;;;;;;;1.67;1.57;;;;;;;;;;4952119;29;20290;-72
2020/12/04 14:30:38;;;;;;;5.73;5.13;;;;;;;;;;4955410;28;20230;-70
2020/12/04 14:33:23;;;;;;;6.60;6.00;;;;;;;;;;4952299;28;21010;-72
2020/12/04 14:36:08;;;;;;;2.70;2.50;;;;;;;;;;4951137;28;20730;-72
2020/12/04 14:39:04;;;;;;;2.50;1.97;;;;;;;;;;4951827;28;20287;-73
2020/12/04 14:41:49;;;;;;;1.00;1.00;;;;;;;;;;4934227;29;20248;-72
2020/12/04 14:44:34;;;;;;;1.23;1.13;;;;;;;;;;4942030;28;20576;-71
2020/12/04 14:47:18;;;;;;;1.33;1.17;;;;;;;;;;4951356;28;20298;-74
2020/12/04 14:50:04;;;;;;;1.53;1.00;;;;;;;;;;4952781;29;20892;-80
2020/12/04 14:52:49;;;;;;;2.93;1.63;;;;;;;;;;4953030;28;20348;-80
2020/12/04 14:55:33;;;;;;;2.07;1.20;;;;;;;;;;4953089;29;20207;-80
2020/12/04 14:58:18;;;;;;;1.50;1.30;;;;;;;;;;4952675;29;20203;-80
2020/12/04 15:01:03;;;;;;;4.27;2.53;;;;;;;;;;4953944;28;20207;-79
2020/12/04 15:03:48;;;;;;;2.50;2.30;;;;;;;;;;4950189;28;20235;-76
2020/12/04 15:06:33;;;;;;;2.77;2.17;;;;;;;;;;4954126;28;20576;-78
2020/12/04 15:09:18;;;;;;;2.53;2.13;;;;;;;;;;4954714;28;20820;-78
2020/12/04 15:12:02;;;;;;;4.30;2.40;;;;;;;;;;4952174;29;20251;-80
2020/12/04 15:14:47;;;;;;;2.23;2.03;;;;;;;;;;4952318;28;20210;-76
2020/12/04 15:17:32;;;;;;;1.60;1.50;;;;;;;;;;4956292;29;20258;-72
2020/12/04 15:20:16;;;;;;;2.00;1.57;;;;;;;;;;4956728;29;20729;-75
2020/12/04 15:23:02;;;;;;;2.53;1.60;;;;;;;;;;4954159;28;20433;-73
2020/12/04 15:25:48;;;;;;;2.83;1.70;;;;;;;;;;4956611;29;20231;-74
2020/12/04 15:28:32;;;;;;;2.20;2.00;;;;;;;;;;4937265;29;20212;-75
2020/12/04 15:31:17;;;;;;;1.60;1.50;;;;;;;;;;4955662;29;20207;-73
2020/12/04 15:34:01;;;;;;;2.93;2.70;;;;;;;;;;4956206;28;20221;-74
2020/12/04 15:36:46;;;;;;;2.40;1.40;;;;;;;;;;4955940;29;20226;-76
2020/12/04 15:39:33;;;;;;;2.43;2.20;;;;;;;;;;4941397;29;20248;-75
2020/12/04 15:42:19;;;;;;;3.03;1.47;;;;;;;;;;4947514;28;20233;-74
2020/12/04 15:45:04;;;;;;;2.20;1.80;;;;;;;;;;4956090;29;21030;-78
2020/12/04 15:47:48;;;;;;;2.90;2.70;;;;;;;;;;4955532;29;20692;-76
2020/12/04 15:50:33;;;;;;;4.37;3.97;;;;;;;;;;4955927;29;20233;-79
2020/12/04 15:53:18;;;;;;;6.13;5.23;;;;;;;;;;4956045;28;20224;-77
2020/12/04 15:56:04;;;;;;;6.77;5.43;;;;;;;;;;4955404;29;20720;-77
2020/12/04 15:58:48;;;;;;;5.10;3.97;;;;;;;;;;4955995;29;20229;-78
2020/12/04 16:01:33;;;;;;;3.10;2.90;;;;;;;;;;4955527;29;20337;-80
2020/12/04 16:04:17;;;;;;;1.80;1.70;;;;;;;;;;4955807;28;20357;-78
2020/12/04 16:07:03;;;;;;;2.03;1.60;;;;;;;;;;4954959;29;20213;-71
2020/12/04 16:09:47;;;;;;;2.03;1.60;;;;;;;;;;4954494;29;20796;-71
2020/12/04 16:12:33;;;;;;;3.80;1.53;;;;;;;;;;4956724;28;20223;-73
2020/12/04 16:15:17;;;;;;;1.30;1.20;;;;;;;;;;4954196;28;20229;-74
2020/12/04 16:18:02;;;;;;;3.83;1.50;;;;;;;;;;4951108;28;20205;-72
2020/12/04 16:20:46;;;;;;;4.77;3.77;;;;;;;;;;4945254;29;20216;-74
2020/12/04 16:23:31;;;;;;;26.80;18.20;;;;;;;;;;4954919;28;20253;-75
2020/12/04 16:26:15;;;;;;;16.83;12.37;;;;;;;;;;4952155;28;20227;-75
2020/12/04 16:29:01;;;;;;;6.30;5.17;;;;;;;;;;4952211;28;20225;-71
2020/12/04 16:31:45;;;;;;;8.83;7.47;;;;;;;;;;4955498;29;20221;-72
2020/12/04 16:34:30;;;;;;;7.50;5.30;;;;;;;;;;4955319;28;20366;-72